createdAt,value
2023-04-24T00:00:13.465Z,4.82
2023-04-24T00:02:41.231Z,4.80
2023-04-24T00:05:10.130Z,5.07
2023-04-24T00:07:37.144Z,4.60
2023-04-24T00:10:04.376Z,4.10
2023-04-24T00:12:31.940Z,6.13
2023-04-24T00:14:58.930Z,4.45
2023-04-24T00:17:26.112Z,5.18
2023-04-24T00:19:59.420Z,5.97
2023-04-24T00:22:27.741Z,4.60
2023-04-24T00:24:55.531Z,4.30
2023-04-24T00:27:22.616Z,5.07
2023-04-24T00:29:49.698Z,4.30
2023-04-24T00:32:16.908Z,6.57
2023-04-24T00:34:43.997Z,5.25
2023-04-24T00:37:11.029Z,5.20
2023-04-24T00:39:38.135Z,5.55
2023-04-24T00:42:07.460Z,6.00
2023-04-24T00:44:36.000Z,6.43
2023-04-24T00:47:03.091Z,5.10
2023-04-24T00:49:30.107Z,5.95
2023-04-24T00:51:57.969Z,6.22
2023-04-24T00:54:24.937Z,5.53
2023-04-24T00:56:52.509Z,5.95
2023-04-24T00:59:19.749Z,7.00
2023-04-24T01:01:47.648Z,5.75
2023-04-24T01:04:15.356Z,6.18
2023-04-24T01:06:44.194Z,5.60
2023-04-24T01:09:13.015Z,9.82
2023-04-24T01:11:41.841Z,6.32
2023-04-24T01:14:08.930Z,5.68
2023-04-24T01:16:37.080Z,5.93
2023-04-24T01:19:04.174Z,5.20
2023-04-24T01:21:34.726Z,5.10
2023-04-24T01:24:01.799Z,5.93
2023-04-24T01:26:28.803Z,6.75
2023-04-24T01:28:55.899Z,7.75
2023-04-24T01:31:23.057Z,6.95
2023-04-24T01:33:51.099Z,5.93
2023-04-24T01:36:18.131Z,5.75
2023-04-24T01:38:45.463Z,8.85
2023-04-24T01:41:12.522Z,6.18
2023-04-24T01:43:39.751Z,5.75
2023-04-24T01:46:07.543Z,11.15
2023-04-24T01:48:35.179Z,6.45
2023-04-24T01:51:02.202Z,7.05
2023-04-24T01:53:29.229Z,6.55
2023-04-24T01:55:56.313Z,7.63
2023-04-24T01:58:24.379Z,6.65
2023-04-24T02:00:51.453Z,7.35
2023-04-24T02:03:18.622Z,6.63
2023-04-24T02:05:46.449Z,8.55
2023-04-24T02:08:13.429Z,7.13
2023-04-24T02:10:40.400Z,8.75
2023-04-24T02:13:07.342Z,6.40
2023-04-24T02:15:34.358Z,7.55
2023-04-24T02:18:01.455Z,6.20
2023-04-24T02:20:28.587Z,8.52
2023-04-24T02:22:56.140Z,7.22
2023-04-24T02:25:23.395Z,8.18
2023-04-24T02:27:50.349Z,11.77
2023-04-24T02:30:17.329Z,6.70
2023-04-24T02:32:44.379Z,7.20
2023-04-24T02:35:11.534Z,11.43
2023-04-24T02:37:38.657Z,7.97
2023-04-24T02:40:06.993Z,9.05
2023-04-24T02:42:33.989Z,6.85
2023-04-24T02:45:01.097Z,6.95
2023-04-24T02:47:28.151Z,6.72
2023-04-24T02:49:55.185Z,8.18
2023-04-24T02:52:22.173Z,7.28
2023-04-24T02:54:49.186Z,6.93
2023-04-24T02:57:16.313Z,7.38
2023-04-24T02:59:43.448Z,7.05
2023-04-24T03:02:10.727Z,7.90
2023-04-24T03:04:38.187Z,6.80
2023-04-24T03:07:05.740Z,6.32
2023-04-24T03:09:32.840Z,8.05
2023-04-24T03:11:59.798Z,8.00
2023-04-24T03:14:26.876Z,7.00
2023-04-24T03:16:53.854Z,7.15
2023-04-24T03:19:20.863Z,6.57
2023-04-24T03:21:47.868Z,6.35
2023-04-24T03:24:14.847Z,8.23
2023-04-24T03:26:41.931Z,7.28
2023-04-24T03:29:08.976Z,8.52
2023-04-24T03:31:35.984Z,9.13
2023-04-24T03:34:02.974Z,7.03
2023-04-24T03:36:29.943Z,7.93
2023-04-24T03:38:56.926Z,9.20
2023-04-24T03:41:23.980Z,7.43
2023-04-24T03:43:50.998Z,8.38
2023-04-24T03:46:18.123Z,7.97
2023-04-24T03:48:45.275Z,8.98
2023-04-24T03:51:12.347Z,8.30
2023-04-24T03:53:39.421Z,9.32
2023-04-24T03:56:06.565Z,8.07
2023-04-24T03:58:33.526Z,9.18
2023-04-24T04:01:01.370Z,7.90
2023-04-24T04:03:28.536Z,8.27
2023-04-24T04:05:55.728Z,9.32
2023-04-24T04:08:22.754Z,8.45
2023-04-24T04:10:49.843Z,8.20
2023-04-24T04:13:16.825Z,8.52
2023-04-24T04:15:43.972Z,8.68
2023-04-24T04:18:11.138Z,9.27
2023-04-24T04:20:38.091Z,8.43
2023-04-24T04:23:05.064Z,8.60
2023-04-24T04:25:32.252Z,11.95
2023-04-24T04:28:00.748Z,10.40
2023-04-24T04:30:27.810Z,7.50
2023-04-24T04:32:54.782Z,10.43
2023-04-24T04:35:23.040Z,10.30
2023-04-24T04:37:50.467Z,8.48
2023-04-24T04:40:17.425Z,12.25
2023-04-24T04:42:47.166Z,11.50
2023-04-24T04:45:14.116Z,12.93
2023-04-24T04:47:41.246Z,10.88
2023-04-24T04:50:08.615Z,11.95
2023-04-24T04:52:35.594Z,10.85
2023-04-24T04:55:02.929Z,9.18
2023-04-24T04:57:29.954Z,11.02
2023-04-24T04:59:57.052Z,10.65
2023-04-24T05:02:24.055Z,7.50
2023-04-24T05:04:51.544Z,13.20
2023-04-24T05:07:19.529Z,9.05
2023-04-24T05:09:46.600Z,8.73
2023-04-24T05:12:13.598Z,8.43
2023-04-24T05:14:40.754Z,11.68
2023-04-24T05:17:07.839Z,9.30
2023-04-24T05:19:37.123Z,8.02
2023-04-24T05:22:05.368Z,8.45
2023-04-24T05:24:32.433Z,8.90
2023-04-24T05:27:00.097Z,7.70
2023-04-24T05:29:27.666Z,7.93
2023-04-24T05:31:54.855Z,7.28
2023-04-24T05:34:22.034Z,7.25
2023-04-24T05:36:49.484Z,6.80
2023-04-24T05:39:16.489Z,6.70
2023-04-24T05:41:43.579Z,6.55
2023-04-24T05:44:10.697Z,6.72
2023-04-24T05:46:37.759Z,7.03
2023-04-24T05:49:04.849Z,7.40
2023-04-24T05:51:33.060Z,7.03
2023-04-24T05:54:00.100Z,7.00
2023-04-24T05:56:27.192Z,8.32
2023-04-24T05:58:54.351Z,11.23
2023-04-24T06:01:21.910Z,10.45
2023-04-24T06:03:49.132Z,7.15
2023-04-24T06:06:16.894Z,7.28
2023-04-24T06:08:45.307Z,5.88
2023-04-24T06:11:12.320Z,8.95
2023-04-24T06:13:39.326Z,7.63
2023-04-24T06:16:06.812Z,5.30
2023-04-24T06:18:33.994Z,7.40
2023-04-24T06:21:00.947Z,6.93
2023-04-24T06:23:28.079Z,4.68
2023-04-24T06:25:55.193Z,8.35
2023-04-24T06:28:22.224Z,6.60
2023-04-24T06:30:49.190Z,7.10
2023-04-24T06:33:21.241Z,5.45
2023-04-24T06:35:48.929Z,6.15
2023-04-24T06:38:17.518Z,6.05
2023-04-24T06:40:44.892Z,5.72
2023-04-24T06:43:12.121Z,5.22
2023-04-24T06:45:41.109Z,5.25
2023-04-24T06:48:08.473Z,9.00
2023-04-24T06:50:36.405Z,6.40
2023-04-24T06:53:03.434Z,5.88
2023-04-24T06:55:30.632Z,6.65
2023-04-24T06:57:57.719Z,6.10
2023-04-24T07:00:25.618Z,5.38
2023-04-24T07:02:52.830Z,11.15
2023-04-24T07:05:23.048Z,8.48
2023-04-24T07:07:51.014Z,6.47
2023-04-24T07:10:19.373Z,6.97
2023-04-24T07:12:46.582Z,7.35
2023-04-24T07:15:13.660Z,7.07
2023-04-24T07:17:44.670Z,6.07
2023-04-24T07:20:12.761Z,9.80
2023-04-24T07:22:40.134Z,6.82
2023-04-24T07:25:08.094Z,8.80
2023-04-24T07:27:37.400Z,6.33
2023-04-24T07:30:05.924Z,6.60
2023-04-24T07:32:33.055Z,6.25
2023-04-24T07:35:00.025Z,7.53
2023-04-24T07:37:27.630Z,6.20
2023-04-24T07:39:54.624Z,5.77
2023-04-24T07:42:21.625Z,8.40
2023-04-24T07:44:48.927Z,7.80
2023-04-24T07:47:18.371Z,6.67
2023-04-24T07:49:45.529Z,7.50
2023-04-24T07:52:12.904Z,9.63
2023-04-24T07:54:39.958Z,7.83
2023-04-24T07:57:08.105Z,6.70
2023-04-24T07:59:35.691Z,5.53
2023-04-24T08:02:02.907Z,4.97
2023-04-24T08:04:30.170Z,5.20
2023-04-24T08:06:57.390Z,5.93
2023-04-24T08:09:26.399Z,4.57
2023-04-24T08:11:55.190Z,4.77
2023-04-24T08:14:22.302Z,7.40
2023-04-24T08:16:49.323Z,4.80
2023-04-24T08:19:16.490Z,4.20
2023-04-24T08:21:43.606Z,4.60
2023-04-24T08:24:10.597Z,4.47
2023-04-24T08:26:37.698Z,3.63
2023-04-24T08:29:04.840Z,3.40
2023-04-24T08:31:31.844Z,4.85
2023-04-24T08:33:58.944Z,4.00
2023-04-24T08:36:35.947Z,5.10
2023-04-24T08:39:07.038Z,3.23
2023-04-24T08:41:35.761Z,2.70
2023-04-24T08:44:04.068Z,3.83
2023-04-24T08:46:32.058Z,2.87
2023-04-24T08:49:00.645Z,2.83
2023-04-24T08:51:29.077Z,2.92
2023-04-24T08:53:56.366Z,1.80
2023-04-24T08:56:24.959Z,2.87
2023-04-24T08:58:55.992Z,1.50
2023-04-24T09:01:26.500Z,4.03
2023-04-24T09:03:57.747Z,5.65
2023-04-24T09:06:27.495Z,2.23
2023-04-24T09:08:57.605Z,1.30
2023-04-24T09:11:26.617Z,2.10
2023-04-24T09:13:56.136Z,1.73
2023-04-24T09:16:25.595Z,1.25
2023-04-24T09:18:53.228Z,1.40
2023-04-24T09:21:27.325Z,2.35
2023-04-24T09:24:04.105Z,1.02
2023-04-24T09:26:35.192Z,1.80
2023-04-24T09:29:02.912Z,1.13
2023-04-24T09:31:31.050Z,2.30
2023-04-24T09:34:09.038Z,0.95
2023-04-24T09:36:44.196Z,1.20
2023-04-24T09:39:21.004Z,1.55
2023-04-24T09:41:59.833Z,0.98
2023-04-24T09:44:29.444Z,1.27
2023-04-24T09:46:58.287Z,1.63
2023-04-24T09:49:27.737Z,1.20
2023-04-24T09:52:08.540Z,3.05
2023-04-24T09:54:38.095Z,1.40
2023-04-24T09:57:05.553Z,2.65
2023-04-24T09:59:33.394Z,1.52
2023-04-24T10:02:01.558Z,1.50
2023-04-24T10:04:30.385Z,1.23
2023-04-24T10:06:58.515Z,1.40
2023-04-24T10:09:27.787Z,2.22
2023-04-24T10:11:56.305Z,1.50
2023-04-24T10:14:26.969Z,1.95
2023-04-24T10:16:59.006Z,1.60
2023-04-24T10:19:27.772Z,1.35
2023-04-24T10:21:56.910Z,3.92
2023-04-24T10:24:23.984Z,2.10
2023-04-24T10:26:50.978Z,1.90
2023-04-24T10:29:20.252Z,3.65
2023-04-24T10:31:48.107Z,1.70
2023-04-24T10:34:19.032Z,3.80
2023-04-24T10:36:58.151Z,2.00
2023-04-24T10:39:27.442Z,2.72
2023-04-24T10:41:59.094Z,2.78
2023-04-24T10:44:27.867Z,2.55
2023-04-24T10:46:57.254Z,1.52
2023-04-24T10:49:32.552Z,1.30
2023-04-24T10:52:06.707Z,2.10
2023-04-24T10:54:42.093Z,2.00
2023-04-24T10:57:23.954Z,3.28
2023-04-24T10:59:53.378Z,3.50
2023-04-24T11:02:38.720Z,3.65
2023-04-24T11:05:06.483Z,2.33
2023-04-24T11:08:11.774Z,1.63
2023-04-24T11:10:57.613Z,1.80
2023-04-24T11:13:26.988Z,1.83
2023-04-24T11:16:16.298Z,1.92
2023-04-24T11:18:51.951Z,2.25
2023-04-24T11:21:19.403Z,2.20
2023-04-24T11:23:48.088Z,2.47
2023-04-24T11:26:20.266Z,2.20
2023-04-24T11:28:51.886Z,1.80
2023-04-24T11:31:38.627Z,2.10
2023-04-24T11:34:15.039Z,1.73
2023-04-24T11:36:45.177Z,3.22
2023-04-24T11:39:12.753Z,2.03
2023-04-24T11:41:39.980Z,4.50
2023-04-24T11:44:11.515Z,2.58
2023-04-24T11:46:41.501Z,2.30
2023-04-24T11:49:09.521Z,2.28
2023-04-24T11:51:51.446Z,2.42
2023-04-24T11:54:20.913Z,2.70
2023-04-24T11:56:48.657Z,2.30
2023-04-24T11:59:16.143Z,4.65
2023-04-24T12:01:50.163Z,3.92
2023-04-24T12:04:19.578Z,4.70
2023-04-24T12:07:10.006Z,3.15
2023-04-24T12:09:44.051Z,2.23
2023-04-24T12:12:13.484Z,4.05
2023-04-24T12:14:51.694Z,1.93
2023-04-24T12:17:18.807Z,1.93
2023-04-24T12:19:49.779Z,2.20
2023-04-24T12:22:17.018Z,1.50
2023-04-24T12:25:06.452Z,2.40
2023-04-24T12:27:35.283Z,1.60
2023-04-24T12:30:10.910Z,2.13
2023-04-24T12:32:43.591Z,1.73
2023-04-24T12:35:10.782Z,5.70
2023-04-24T12:37:38.038Z,1.30
2023-04-24T12:40:13.232Z,3.13
2023-04-24T12:42:52.214Z,2.93
2023-04-24T12:45:20.398Z,1.00
2023-04-24T12:47:47.886Z,1.30
2023-04-24T12:50:16.726Z,3.60
2023-04-24T12:52:46.691Z,1.77
2023-04-24T12:55:13.809Z,1.57
2023-04-24T12:57:41.611Z,1.87
2023-04-24T13:00:10.828Z,0.90
2023-04-24T13:02:38.175Z,2.60
2023-04-24T13:05:05.753Z,1.07
2023-04-24T13:07:32.812Z,1.30
2023-04-24T13:09:59.914Z,1.03
2023-04-24T13:12:27.805Z,1.37
2023-04-24T13:14:55.102Z,1.20
2023-04-24T13:17:24.465Z,1.37
2023-04-24T13:19:52.967Z,0.80
2023-04-24T13:22:20.051Z,0.83
2023-04-24T13:24:49.883Z,4.13
2023-04-24T13:27:18.137Z,2.43
2023-04-24T13:29:45.857Z,1.00
2023-04-24T13:32:13.107Z,1.50
2023-04-24T13:34:40.281Z,1.23
2023-04-24T13:37:07.588Z,1.10
2023-04-24T13:39:34.702Z,1.57
2023-04-24T13:42:04.391Z,1.60
2023-04-24T13:44:32.226Z,1.13
2023-04-24T13:46:59.952Z,1.47
2023-04-24T13:49:27.650Z,2.03
2023-04-24T13:51:56.665Z,1.20
2023-04-24T13:54:27.016Z,1.57
2023-04-24T13:56:54.910Z,1.63
2023-04-24T13:59:24.618Z,2.27
2023-04-24T14:01:51.800Z,3.60
2023-04-24T14:04:19.001Z,1.10
2023-04-24T14:06:46.284Z,1.90
2023-04-24T14:09:14.186Z,1.37
2023-04-24T14:11:41.996Z,1.60
2023-04-24T14:14:09.549Z,2.30
2023-04-24T14:16:36.784Z,1.03
2023-04-24T14:19:03.875Z,1.07
2023-04-24T14:21:31.840Z,1.10
2023-04-24T14:23:58.886Z,3.73
2023-04-24T14:26:26.136Z,1.13
2023-04-24T14:29:03.766Z,1.50
2023-04-24T14:31:38.740Z,2.80
2023-04-24T14:34:05.877Z,1.63
2023-04-24T14:36:32.950Z,1.83
2023-04-24T14:38:59.992Z,1.20
2023-04-24T14:41:27.003Z,1.80
2023-04-24T14:43:54.057Z,1.20
2023-04-24T14:46:21.568Z,1.03
2023-04-24T14:48:48.575Z,1.67
2023-04-24T14:51:15.689Z,1.10
2023-04-24T14:53:42.958Z,2.20
2023-04-24T14:56:10.240Z,1.90
2023-04-24T14:58:37.252Z,1.97
2023-04-24T15:01:04.263Z,3.73
2023-04-24T15:03:32.429Z,2.70
2023-04-24T15:05:59.744Z,1.40
2023-04-24T15:08:26.802Z,2.00
2023-04-24T15:10:53.980Z,2.53
2023-04-24T15:13:21.165Z,1.63
2023-04-24T15:15:49.050Z,1.80
2023-04-24T15:18:16.131Z,3.40
2023-04-24T15:20:43.238Z,1.70
2023-04-24T15:23:11.212Z,1.87
2023-04-24T15:25:39.206Z,1.70
2023-04-24T15:28:07.319Z,1.90
2023-04-24T15:30:34.553Z,2.10
2023-04-24T15:33:05.587Z,1.00
2023-04-24T15:35:32.677Z,1.50
2023-04-24T15:37:59.722Z,2.27
2023-04-24T15:40:27.348Z,1.58
2023-04-24T15:42:54.498Z,2.10
2023-04-24T15:45:21.907Z,1.80
2023-04-24T15:47:49.120Z,1.25
2023-04-24T15:50:17.253Z,1.80
2023-04-24T15:52:44.627Z,1.60
2023-04-24T15:55:12.620Z,2.35
2023-04-24T15:57:40.246Z,3.20
2023-04-24T16:00:07.850Z,2.03
2023-04-24T16:02:35.244Z,2.20
2023-04-24T16:05:02.441Z,2.83
2023-04-24T16:07:29.689Z,2.03
2023-04-24T16:09:56.820Z,2.75
2023-04-24T16:12:27.903Z,1.58
2023-04-24T16:14:55.339Z,2.33
2023-04-24T16:17:22.416Z,1.10
2023-04-24T16:19:49.447Z,1.70
2023-04-24T16:22:16.773Z,1.20
2023-04-24T16:24:45.048Z,3.40
2023-04-24T16:27:12.137Z,2.55
2023-04-24T16:29:39.273Z,3.45
2023-04-24T16:32:06.201Z,1.67
2023-04-24T16:34:33.255Z,2.45
2023-04-24T16:37:00.839Z,2.35
2023-04-24T16:39:28.198Z,3.00
2023-04-24T16:41:56.742Z,2.20
2023-04-24T16:44:25.600Z,3.13
2023-04-24T16:46:52.649Z,3.40
2023-04-24T16:49:20.342Z,1.50
2023-04-24T16:51:47.457Z,1.13
2023-04-24T16:54:14.511Z,4.10
2023-04-24T16:56:41.881Z,1.58
2023-04-24T16:59:09.005Z,2.30
2023-04-24T17:01:36.535Z,4.43
2023-04-24T17:04:03.922Z,1.85
2023-04-24T17:06:32.383Z,2.25
2023-04-24T17:09:00.862Z,2.47
2023-04-24T17:11:29.886Z,2.65
2023-04-24T17:14:00.036Z,1.70
2023-04-24T17:16:27.935Z,2.60
2023-04-24T17:18:56.059Z,4.43
2023-04-24T17:21:25.093Z,2.20
2023-04-24T17:23:52.308Z,4.68
2023-04-24T17:26:19.380Z,3.53
2023-04-24T17:28:47.298Z,1.90
2023-04-24T17:31:16.209Z,3.78
2023-04-24T17:33:44.065Z,3.05
2023-04-24T17:36:14.493Z,2.30
2023-04-24T17:38:42.605Z,2.30
2023-04-24T17:41:11.363Z,3.33
2023-04-24T17:43:39.232Z,3.03
2023-04-24T17:46:08.457Z,3.53
2023-04-24T17:48:36.521Z,3.30
2023-04-24T17:51:05.885Z,4.18
2023-04-24T17:53:33.771Z,3.30
2023-04-24T17:56:03.834Z,3.85
2023-04-24T17:58:32.114Z,5.63
2023-04-24T18:00:59.697Z,4.05
2023-04-24T18:03:27.490Z,3.60
2023-04-24T18:05:55.906Z,5.63
2023-04-24T18:08:23.690Z,3.47
2023-04-24T18:10:54.735Z,4.70
2023-04-24T18:13:21.932Z,4.90
2023-04-24T18:15:49.552Z,3.50
2023-04-24T18:18:19.179Z,5.55
2023-04-24T18:20:47.032Z,5.43
2023-04-24T18:23:14.894Z,4.95
2023-04-24T18:25:42.296Z,3.60
2023-04-24T18:28:09.970Z,4.00
2023-04-24T18:30:38.339Z,3.47
2023-04-24T18:33:07.225Z,3.58
2023-04-24T18:35:34.868Z,4.70
2023-04-24T18:38:02.815Z,5.05
2023-04-24T18:40:30.644Z,4.15
2023-04-24T18:42:58.700Z,2.80
2023-04-24T18:45:26.823Z,2.90
2023-04-24T18:47:54.652Z,2.63
2023-04-24T18:50:22.977Z,6.03
2023-04-24T18:52:50.736Z,2.60
2023-04-24T18:55:18.362Z,3.28
2023-04-24T18:57:45.456Z,3.08
2023-04-24T19:00:13.670Z,2.78
2023-04-24T19:02:40.936Z,4.60
2023-04-24T19:05:09.053Z,3.00
2023-04-24T19:07:36.693Z,2.53
2023-04-24T19:10:06.718Z,3.55
2023-04-24T19:12:34.737Z,3.60
2023-04-24T19:15:03.426Z,3.40
2023-04-24T19:17:32.596Z,3.50
2023-04-24T19:20:02.925Z,4.00
2023-04-24T19:22:31.996Z,3.08
2023-04-24T19:24:59.911Z,3.97
2023-04-24T19:27:27.380Z,4.78
2023-04-24T19:29:57.935Z,2.97
2023-04-24T19:32:26.169Z,5.22
2023-04-24T19:34:53.771Z,3.25
2023-04-24T19:37:21.087Z,2.72
2023-04-24T19:39:48.836Z,3.80
2023-04-24T19:42:16.088Z,10.93
2023-04-24T19:44:43.627Z,2.70
2023-04-24T19:47:11.129Z,6.43
2023-04-24T19:49:38.935Z,2.75
2023-04-24T19:52:06.132Z,2.70
2023-04-24T19:54:33.778Z,2.80
2023-04-24T19:57:01.807Z,3.33
2023-04-24T19:59:29.427Z,3.30
2023-04-24T20:01:57.211Z,4.45
2023-04-24T20:04:24.712Z,3.10
2023-04-24T20:06:52.891Z,5.43
2023-04-24T20:09:20.498Z,4.15
2023-04-24T20:11:51.321Z,3.10
2023-04-24T20:14:18.413Z,3.13
2023-04-24T20:16:45.909Z,2.80
2023-04-24T20:19:13.408Z,4.03
2023-04-24T20:21:40.610Z,2.95
2023-04-24T20:24:09.160Z,5.68
2023-04-24T20:26:36.859Z,3.25
2023-04-24T20:29:05.200Z,3.38
2023-04-24T20:31:32.382Z,3.35
2023-04-24T20:33:59.488Z,3.40
2023-04-24T20:36:27.265Z,3.72
2023-04-24T20:38:54.326Z,3.88
2023-04-24T20:41:21.460Z,5.63
2023-04-24T20:43:48.529Z,3.03
2023-04-24T20:46:15.911Z,3.55
2023-04-24T20:48:42.978Z,4.00
2023-04-24T20:51:09.952Z,3.30
2023-04-24T20:53:36.971Z,3.90
2023-04-24T20:56:03.977Z,2.78
2023-04-24T20:58:31.098Z,3.10
2023-04-24T21:00:58.267Z,2.80
2023-04-24T21:03:25.362Z,3.05
2023-04-24T21:05:52.390Z,3.13
2023-04-24T21:08:19.407Z,4.45
2023-04-24T21:10:46.389Z,3.35
2023-04-24T21:13:13.394Z,2.85
2023-04-24T21:15:40.485Z,2.70
2023-04-24T21:18:07.729Z,3.10
2023-04-24T21:20:34.725Z,2.83
2023-04-24T21:23:01.687Z,2.55
2023-04-24T21:25:29.075Z,4.07
2023-04-24T21:27:58.293Z,3.47
2023-04-24T21:30:25.507Z,2.75
2023-04-24T21:32:53.089Z,3.50
2023-04-24T21:35:20.641Z,3.70
2023-04-24T21:37:47.779Z,7.40
2023-04-24T21:40:16.096Z,4.15
2023-04-24T21:42:43.608Z,3.00
2023-04-24T21:45:11.172Z,3.95
2023-04-24T21:47:38.240Z,3.25
2023-04-24T21:50:06.107Z,3.70
2023-04-24T21:52:33.136Z,3.35
2023-04-24T21:55:00.188Z,3.17
2023-04-24T21:57:27.278Z,2.97
2023-04-24T21:59:54.480Z,4.00
2023-04-24T22:02:21.808Z,3.35
2023-04-24T22:04:50.582Z,3.78
2023-04-24T22:07:17.676Z,3.85
2023-04-24T22:09:44.723Z,3.22
2023-04-24T22:12:11.796Z,3.58
2023-04-24T22:14:39.088Z,3.97
2023-04-24T22:17:06.046Z,4.15
2023-04-24T22:19:33.020Z,3.60
2023-04-24T22:22:00.263Z,3.50
2023-04-24T22:24:27.350Z,4.05
2023-04-24T22:26:54.326Z,3.25
2023-04-24T22:29:21.757Z,5.07
2023-04-24T22:31:49.282Z,3.95
2023-04-24T22:34:17.216Z,3.50
2023-04-24T22:36:44.272Z,6.18
2023-04-24T22:39:15.883Z,3.63
2023-04-24T22:41:43.363Z,4.00
2023-04-24T22:44:11.471Z,3.50
2023-04-24T22:46:38.587Z,3.58
2023-04-24T22:49:05.705Z,3.15
2023-04-24T22:51:35.460Z,4.90
2023-04-24T22:54:04.556Z,3.55
2023-04-24T22:56:32.239Z,3.40
2023-04-24T22:58:59.491Z,3.38
2023-04-24T23:01:29.910Z,4.57
2023-04-24T23:03:57.115Z,3.55
2023-04-24T23:06:24.334Z,3.72
2023-04-24T23:08:51.339Z,3.55
2023-04-24T23:11:18.477Z,2.75
2023-04-24T23:13:45.594Z,2.58
2023-04-24T23:16:12.679Z,2.42
2023-04-24T23:18:39.742Z,2.70
2023-04-24T23:21:06.921Z,2.55
2023-04-24T23:23:34.025Z,4.18
2023-04-24T23:26:01.640Z,2.70
2023-04-24T23:28:28.667Z,2.78
2023-04-24T23:30:55.636Z,2.38
2023-04-24T23:33:22.619Z,2.60
2023-04-24T23:35:49.926Z,3.05
2023-04-24T23:38:16.889Z,3.85
2023-04-24T23:40:43.938Z,2.42
2023-04-24T23:43:10.918Z,2.30
2023-04-24T23:45:37.935Z,2.30
2023-04-24T23:48:05.217Z,2.38
2023-04-24T23:50:32.302Z,1.90
2023-04-24T23:52:59.447Z,2.10
2023-04-24T23:55:26.489Z,2.05
2023-04-24T23:57:53.904Z,2.28
